sensor_id;sensor_type;location;lat;lon;timestamp;P1;durP1;ratioP1;P2;durP2;ratioP2
13032;SDS011;6583;42.632;23.298;2023-02-28T05:59:51;38.97;;;15.17;;
13032;SDS011;6583;42.632;23.298;2023-02-28T06:02:17;37.40;;;13.87;;
13032;SDS011;6583;42.632;23.298;2023-02-28T06:04:44;26.10;;;14.07;;
13032;SDS011;6583;42.632;23.298;2023-02-28T06:07:11;33.13;;;15.37;;
13032;SDS011;6583;42.632;23.298;2023-02-28T06:09:38;34.20;;;15.37;;
13032;SDS011;6583;42.632;23.298;2023-02-28T06:12:05;30.30;;;15.23;;
13032;SDS011;6583;42.632;23.298;2023-02-28T06:14:34;28.23;;;15.33;;
13032;SDS011;6583;42.632;23.298;2023-02-28T06:17:03;29.67;;;15.37;;
13032;SDS011;6583;42.632;23.298;2023-02-28T06:19:30;25.00;;;13.10;;
13032;SDS011;6583;42.632;23.298;2023-02-28T06:21:57;25.13;;;13.17;;
13032;SDS011;6583;42.632;23.298;2023-02-28T06:24:25;29.50;;;15.10;;
13032;SDS011;6583;42.632;23.298;2023-02-28T06:26:53;25.23;;;13.40;;
13032;SDS011;6583;42.632;23.298;2023-02-28T06:29:21;27.57;;;15.87;;
13032;SDS011;6583;42.632;23.298;2023-02-28T06:31:48;33.03;;;17.57;;
13032;SDS011;6583;42.632;23.298;2023-02-28T06:34:16;29.27;;;17.23;;
13032;SDS011;6583;42.632;23.298;2023-02-28T06:36:43;34.03;;;18.27;;
13032;SDS011;6583;42.632;23.298;2023-02-28T06:39:09;31.87;;;18.73;;
13032;SDS011;6583;42.632;23.298;2023-02-28T06:41:36;33.43;;;17.93;;
13032;SDS011;6583;42.632;23.298;2023-02-28T06:44:05;29.20;;;16.67;;
13032;SDS011;6583;42.632;23.298;2023-02-28T06:46:38;26.40;;;15.20;;
13032;SDS011;6583;42.632;23.298;2023-02-28T06:49:05;27.93;;;15.53;;
13032;SDS011;6583;42.632;23.298;2023-02-28T06:51:35;26.53;;;15.70;;
13032;SDS011;6583;42.632;23.298;2023-02-28T06:54:05;34.20;;;17.47;;
13032;SDS011;6583;42.632;23.298;2023-02-28T06:56:34;34.90;;;18.67;;
13032;SDS011;6583;42.632;23.298;2023-02-28T06:59:01;41.77;;;21.80;;
13032;SDS011;6583;42.632;23.298;2023-02-28T07:01:30;36.47;;;20.07;;
13032;SDS011;6583;42.632;23.298;2023-02-28T07:03:57;44.03;;;22.43;;
13032;SDS011;6583;42.632;23.298;2023-02-28T07:06:25;40.53;;;21.43;;
13032;SDS011;6583;42.632;23.298;2023-02-28T07:08:53;35.40;;;20.27;;
13032;SDS011;6583;42.632;23.298;2023-02-28T07:11:20;45.77;;;22.47;;
13032;SDS011;6583;42.632;23.298;2023-02-28T07:13:50;44.23;;;23.13;;
13032;SDS011;6583;42.632;23.298;2023-02-28T07:16:17;48.73;;;24.97;;
13032;SDS011;6583;42.632;23.298;2023-02-28T07:18:44;44.07;;;22.90;;
13032;SDS011;6583;42.632;23.298;2023-02-28T07:21:10;47.60;;;23.80;;
13032;SDS011;6583;42.632;23.298;2023-02-28T07:23:37;45.00;;;24.03;;
13032;SDS011;6583;42.632;23.298;2023-02-28T07:26:06;54.93;;;29.03;;
13032;SDS011;6583;42.632;23.298;2023-02-28T07:28:37;52.83;;;29.47;;
13032;SDS011;6583;42.632;23.298;2023-02-28T07:31:04;68.20;;;32.23;;
13032;SDS011;6583;42.632;23.298;2023-02-28T07:33:32;55.83;;;30.43;;
13032;SDS011;6583;42.632;23.298;2023-02-28T07:36:02;55.10;;;29.40;;
13032;SDS011;6583;42.632;23.298;2023-02-28T07:38:30;54.40;;;29.17;;
13032;SDS011;6583;42.632;23.298;2023-02-28T07:40:59;54.00;;;29.07;;
13032;SDS011;6583;42.632;23.298;2023-02-28T07:43:27;53.53;;;28.47;;
13032;SDS011;6583;42.632;23.298;2023-02-28T07:45:54;59.13;;;32.27;;
13032;SDS011;6583;42.632;23.298;2023-02-28T07:48:20;59.67;;;31.67;;
13032;SDS011;6583;42.632;23.298;2023-02-28T07:50:53;62.80;;;32.17;;
13032;SDS011;6583;42.632;23.298;2023-02-28T07:53:21;56.70;;;29.63;;
13032;SDS011;6583;42.632;23.298;2023-02-28T07:55:47;52.40;;;29.03;;
13032;SDS011;6583;42.632;23.298;2023-02-28T07:58:14;57.10;;;29.13;;
13032;SDS011;6583;42.632;23.298;2023-02-28T08:00:42;58.90;;;30.27;;
13032;SDS011;6583;42.632;23.298;2023-02-28T08:03:09;59.90;;;30.27;;
13032;SDS011;6583;42.632;23.298;2023-02-28T08:05:38;64.23;;;30.43;;
13032;SDS011;6583;42.632;23.298;2023-02-28T08:08:05;56.77;;;30.67;;
13032;SDS011;6583;42.632;23.298;2023-02-28T08:10:31;57.67;;;29.40;;
13032;SDS011;6583;42.632;23.298;2023-02-28T08:12:58;60.47;;;30.60;;
13032;SDS011;6583;42.632;23.298;2023-02-28T08:15:25;59.03;;;29.90;;
13032;SDS011;6583;42.632;23.298;2023-02-28T08:17:53;64.50;;;32.23;;
13032;SDS011;6583;42.632;23.298;2023-02-28T08:20:21;67.10;;;33.63;;
13032;SDS011;6583;42.632;23.298;2023-02-28T08:22:48;77.17;;;37.17;;
13032;SDS011;6583;42.632;23.298;2023-02-28T08:25:14;73.83;;;35.73;;
13032;SDS011;6583;42.632;23.298;2023-02-28T08:27:41;67.70;;;35.07;;
13032;SDS011;6583;42.632;23.298;2023-02-28T08:30:09;72.07;;;35.07;;
13032;SDS011;6583;42.632;23.298;2023-02-28T08:32:37;67.77;;;34.43;;
13032;SDS011;6583;42.632;23.298;2023-02-28T08:35:05;63.10;;;33.30;;
13032;SDS011;6583;42.632;23.298;2023-02-28T08:37:34;57.30;;;31.20;;
13032;SDS011;6583;42.632;23.298;2023-02-28T08:40:00;61.30;;;30.47;;
13032;SDS011;6583;42.632;23.298;2023-02-28T08:42:29;65.50;;;32.13;;
13032;SDS011;6583;42.632;23.298;2023-02-28T08:44:56;63.40;;;31.40;;
13032;SDS011;6583;42.632;23.298;2023-02-28T08:47:22;69.00;;;31.63;;
13032;SDS011;6583;42.632;23.298;2023-02-28T08:49:49;61.60;;;32.43;;
13032;SDS011;6583;42.632;23.298;2023-02-28T08:52:17;74.53;;;34.40;;
13032;SDS011;6583;42.632;23.298;2023-02-28T08:54:43;68.73;;;35.00;;
13032;SDS011;6583;42.632;23.298;2023-02-28T08:57:10;60.30;;;31.90;;
13032;SDS011;6583;42.632;23.298;2023-02-28T08:59:37;60.17;;;31.17;;
13032;SDS011;6583;42.632;23.298;2023-02-28T09:02:03;60.53;;;31.20;;
13032;SDS011;6583;42.632;23.298;2023-02-28T09:04:30;82.47;;;38.00;;
13032;SDS011;6583;42.632;23.298;2023-02-28T09:06:57;86.17;;;39.13;;
13032;SDS011;6583;42.632;23.298;2023-02-28T09:09:25;81.27;;;38.10;;
13032;SDS011;6583;42.632;23.298;2023-02-28T09:11:52;79.60;;;37.57;;
13032;SDS011;6583;42.632;23.298;2023-02-28T09:14:21;78.10;;;37.27;;
13032;SDS011;6583;42.632;23.298;2023-02-28T09:16:47;77.53;;;36.50;;
13032;SDS011;6583;42.632;23.298;2023-02-28T09:19:14;78.13;;;38.37;;
13032;SDS011;6583;42.632;23.298;2023-02-28T09:21:41;69.07;;;35.87;;
13032;SDS011;6583;42.632;23.298;2023-02-28T09:24:07;57.93;;;28.40;;
13032;SDS011;6583;42.632;23.298;2023-02-28T09:26:38;58.83;;;26.93;;
13032;SDS011;6583;42.632;23.298;2023-02-28T09:29:04;52.00;;;27.63;;
13032;SDS011;6583;42.632;23.298;2023-02-28T09:31:31;52.03;;;28.27;;
13032;SDS011;6583;42.632;23.298;2023-02-28T09:33:58;51.47;;;27.87;;
13032;SDS011;6583;42.632;23.298;2023-02-28T09:36:26;57.60;;;27.57;;
13032;SDS011;6583;42.632;23.298;2023-02-28T09:38:54;47.73;;;25.23;;
13032;SDS011;6583;42.632;23.298;2023-02-28T09:41:22;42.73;;;24.50;;
13032;SDS011;6583;42.632;23.298;2023-02-28T09:43:52;45.03;;;24.77;;
13032;SDS011;6583;42.632;23.298;2023-02-28T09:46:27;45.63;;;24.87;;
13032;SDS011;6583;42.632;23.298;2023-02-28T09:48:57;44.80;;;25.17;;
13032;SDS011;6583;42.632;23.298;2023-02-28T09:51:28;48.80;;;27.40;;
13032;SDS011;6583;42.632;23.298;2023-02-28T09:54:04;55.67;;;30.03;;
13032;SDS011;6583;42.632;23.298;2023-02-28T09:56:33;59.77;;;28.53;;
13032;SDS011;6583;42.632;23.298;2023-02-28T09:59:09;49.53;;;28.07;;
13032;SDS011;6583;42.632;23.298;2023-02-28T10:01:42;54.00;;;27.73;;
13032;SDS011;6583;42.632;23.298;2023-02-28T10:04:33;55.80;;;28.93;;
13032;SDS011;6583;42.632;23.298;2023-02-28T10:07:11;57.77;;;28.47;;
13032;SDS011;6583;42.632;23.298;2023-02-28T10:09:45;50.93;;;27.83;;
13032;SDS011;6583;42.632;23.298;2023-02-28T10:12:17;50.53;;;28.63;;
13032;SDS011;6583;42.632;23.298;2023-02-28T10:14:48;58.17;;;29.57;;
13032;SDS011;6583;42.632;23.298;2023-02-28T10:17:18;49.90;;;25.77;;
13032;SDS011;6583;42.632;23.298;2023-02-28T10:19:50;44.27;;;25.37;;
13032;SDS011;6583;42.632;23.298;2023-02-28T10:22:26;31.40;;;17.87;;
13032;SDS011;6583;42.632;23.298;2023-02-28T10:24:57;34.83;;;21.03;;
13032;SDS011;6583;42.632;23.298;2023-02-28T10:27:28;31.43;;;15.90;;
13032;SDS011;6583;42.632;23.298;2023-02-28T10:29:59;22.53;;;12.07;;
13032;SDS011;6583;42.632;23.298;2023-02-28T10:32:28;22.47;;;11.00;;
13032;SDS011;6583;42.632;23.298;2023-02-28T10:34:58;24.27;;;11.07;;
13032;SDS011;6583;42.632;23.298;2023-02-28T10:37:27;18.47;;;10.87;;
13032;SDS011;6583;42.632;23.298;2023-02-28T10:39:54;23.27;;;12.27;;
13032;SDS011;6583;42.632;23.298;2023-02-28T10:42:22;27.30;;;12.07;;
13032;SDS011;6583;42.632;23.298;2023-02-28T10:45:11;22.03;;;11.83;;
13032;SDS011;6583;42.632;23.298;2023-02-28T10:47:41;22.43;;;11.60;;
13032;SDS011;6583;42.632;23.298;2023-02-28T10:50:33;27.53;;;14.33;;
13032;SDS011;6583;42.632;23.298;2023-02-28T10:53:16;26.10;;;12.33;;
13032;SDS011;6583;42.632;23.298;2023-02-28T10:55:58;19.83;;;10.20;;
13032;SDS011;6583;42.632;23.298;2023-02-28T10:58:27;23.43;;;11.43;;
13032;SDS011;6583;42.632;23.298;2023-02-28T11:00:57;17.87;;;9.87;;
13032;SDS011;6583;42.632;23.298;2023-02-28T11:03:29;22.13;;;10.57;;
13032;SDS011;6583;42.632;23.298;2023-02-28T11:05:57;21.43;;;11.03;;
13032;SDS011;6583;42.632;23.298;2023-02-28T11:08:24;23.13;;;11.13;;
13032;SDS011;6583;42.632;23.298;2023-02-28T11:10:54;23.27;;;11.57;;
13032;SDS011;6583;42.632;23.298;2023-02-28T11:13:25;22.17;;;10.27;;
13032;SDS011;6583;42.632;23.298;2023-02-28T11:15:55;17.90;;;10.27;;
13032;SDS011;6583;42.632;23.298;2023-02-28T11:18:26;18.53;;;9.73;;
13032;SDS011;6583;42.632;23.298;2023-02-28T11:20:56;17.90;;;10.13;;
13032;SDS011;6583;42.632;23.298;2023-02-28T11:23:26;19.67;;;9.60;;
13032;SDS011;6583;42.632;23.298;2023-02-28T11:25:56;19.30;;;10.33;;
13032;SDS011;6583;42.632;23.298;2023-02-28T11:28:26;20.57;;;10.63;;
13032;SDS011;6583;42.632;23.298;2023-02-28T11:31:01;22.60;;;10.70;;
13032;SDS011;6583;42.632;23.298;2023-02-28T11:33:30;21.30;;;11.63;;
13032;SDS011;6583;42.632;23.298;2023-02-28T11:36:00;24.77;;;10.97;;
13032;SDS011;6583;42.632;23.298;2023-02-28T11:38:30;20.03;;;11.30;;
13032;SDS011;6583;42.632;23.298;2023-02-28T11:41:07;17.37;;;10.93;;
13032;SDS011;6583;42.632;23.298;2023-02-28T11:46:50;21.00;;;12.43;;
13032;SDS011;6583;42.632;23.298;2023-02-28T11:49:25;21.40;;;12.70;;
13032;SDS011;6583;42.632;23.298;2023-02-28T11:52:00;23.27;;;12.57;;
13032;SDS011;6583;42.632;23.298;2023-02-28T11:54:36;19.47;;;11.57;;
13032;SDS011;6583;42.632;23.298;2023-02-28T11:57:21;22.47;;;11.47;;
13032;SDS011;6583;42.632;23.298;2023-02-28T12:00:00;22.40;;;11.77;;
13032;SDS011;6583;42.632;23.298;2023-02-28T12:02:37;25.70;;;13.10;;
13032;SDS011;6583;42.632;23.298;2023-02-28T12:05:23;22.73;;;12.97;;
13032;SDS011;6583;42.632;23.298;2023-02-28T12:07:58;24.27;;;13.23;;
13032;SDS011;6583;42.632;23.298;2023-02-28T12:10:34;23.63;;;12.53;;
13032;SDS011;6583;42.632;23.298;2023-02-28T12:13:12;22.23;;;11.27;;
13032;SDS011;6583;42.632;23.298;2023-02-28T12:18:59;22.00;;;12.87;;
13032;SDS011;6583;42.632;23.298;2023-02-28T12:21:39;25.07;;;13.17;;
13032;SDS011;6583;42.632;23.298;2023-02-28T12:24:21;26.87;;;13.90;;
13032;SDS011;6583;42.632;23.298;2023-02-28T12:26:59;25.00;;;14.93;;
13032;SDS011;6583;42.632;23.298;2023-02-28T12:29:29;25.50;;;14.67;;
13032;SDS011;6583;42.632;23.298;2023-02-28T12:31:58;28.53;;;14.73;;
13032;SDS011;6583;42.632;23.298;2023-02-28T12:34:33;24.77;;;14.10;;
13032;SDS011;6583;42.632;23.298;2023-02-28T12:37:04;20.23;;;12.30;;
13032;SDS011;6583;42.632;23.298;2023-02-28T12:39:37;25.93;;;13.90;;
13032;SDS011;6583;42.632;23.298;2023-02-28T12:42:10;22.00;;;14.47;;
13032;SDS011;6583;42.632;23.298;2023-02-28T12:44:40;24.57;;;13.53;;
13032;SDS011;6583;42.632;23.298;2023-02-28T12:47:13;23.40;;;13.43;;
13032;SDS011;6583;42.632;23.298;2023-02-28T12:49:45;25.40;;;14.13;;
13032;SDS011;6583;42.632;23.298;2023-02-28T12:52:17;23.87;;;14.07;;
13032;SDS011;6583;42.632;23.298;2023-02-28T12:54:48;27.70;;;13.90;;
13032;SDS011;6583;42.632;23.298;2023-02-28T12:57:22;25.57;;;14.90;;
13032;SDS011;6583;42.632;23.298;2023-02-28T12:59:59;23.20;;;14.57;;
13032;SDS011;6583;42.632;23.298;2023-02-28T13:05:26;26.63;;;15.17;;
13032;SDS011;6583;42.632;23.298;2023-02-28T13:11:23;30.63;;;14.53;;
13032;SDS011;6583;42.632;23.298;2023-02-28T13:13:57;28.40;;;15.60;;
13032;SDS011;6583;42.632;23.298;2023-02-28T13:16:27;23.23;;;13.43;;
13032;SDS011;6583;42.632;23.298;2023-02-28T13:19:15;23.93;;;13.27;;
13032;SDS011;6583;42.632;23.298;2023-02-28T13:21:47;25.80;;;14.00;;
13032;SDS011;6583;42.632;23.298;2023-02-28T13:30:01;26.17;;;13.40;;
13032;SDS011;6583;42.632;23.298;2023-02-28T13:32:51;26.80;;;13.23;;
13032;SDS011;6583;42.632;23.298;2023-02-28T13:35:50;21.90;;;12.67;;
13032;SDS011;6583;42.632;23.298;2023-02-28T13:38:34;20.77;;;12.20;;
13032;SDS011;6583;42.632;23.298;2023-02-28T13:44:13;24.17;;;13.33;;
13032;SDS011;6583;42.632;23.298;2023-02-28T13:49:46;24.73;;;13.20;;
13032;SDS011;6583;42.632;23.298;2023-02-28T13:52:15;25.00;;;13.30;;
13032;SDS011;6583;42.632;23.298;2023-02-28T13:54:52;22.90;;;12.60;;
13032;SDS011;6583;42.632;23.298;2023-02-28T13:57:30;26.53;;;14.00;;
13032;SDS011;6583;42.632;23.298;2023-02-28T14:00:09;22.87;;;13.13;;
13032;SDS011;6583;42.632;23.298;2023-02-28T14:02:57;20.33;;;10.23;;
13032;SDS011;6583;42.632;23.298;2023-02-28T14:05:35;20.40;;;11.00;;
13032;SDS011;6583;42.632;23.298;2023-02-28T14:08:04;22.17;;;12.10;;
13032;SDS011;6583;42.632;23.298;2023-02-28T14:10:40;19.37;;;11.83;;
13032;SDS011;6583;42.632;23.298;2023-02-28T14:16:09;21.53;;;12.73;;
13032;SDS011;6583;42.632;23.298;2023-02-28T14:18:37;21.93;;;11.30;;
13032;SDS011;6583;42.632;23.298;2023-02-28T14:21:11;23.43;;;11.83;;
13032;SDS011;6583;42.632;23.298;2023-02-28T14:23:45;19.17;;;11.40;;
13032;SDS011;6583;42.632;23.298;2023-02-28T14:26:30;22.30;;;11.40;;
13032;SDS011;6583;42.632;23.298;2023-02-28T14:29:14;19.73;;;11.77;;
13032;SDS011;6583;42.632;23.298;2023-02-28T14:31:53;22.00;;;12.30;;
13032;SDS011;6583;42.632;23.298;2023-02-28T14:34:31;23.07;;;11.90;;
13032;SDS011;6583;42.632;23.298;2023-02-28T14:37:05;20.27;;;11.40;;
13032;SDS011;6583;42.632;23.298;2023-02-28T14:39:33;18.67;;;9.93;;
13032;SDS011;6583;42.632;23.298;2023-02-28T14:42:01;17.93;;;9.63;;
13032;SDS011;6583;42.632;23.298;2023-02-28T14:44:30;16.47;;;9.50;;
13032;SDS011;6583;42.632;23.298;2023-02-28T14:46:57;14.07;;;8.13;;
13032;SDS011;6583;42.632;23.298;2023-02-28T14:49:29;16.00;;;9.10;;
13032;SDS011;6583;42.632;23.298;2023-02-28T14:52:02;18.30;;;8.67;;
13032;SDS011;6583;42.632;23.298;2023-02-28T14:54:35;13.97;;;7.37;;
13032;SDS011;6583;42.632;23.298;2023-02-28T14:57:02;14.37;;;7.60;;
13032;SDS011;6583;42.632;23.298;2023-02-28T14:59:30;17.77;;;8.13;;
13032;SDS011;6583;42.632;23.298;2023-02-28T15:02:18;13.90;;;7.13;;
13032;SDS011;6583;42.632;23.298;2023-02-28T15:04:53;13.97;;;6.73;;
13032;SDS011;6583;42.632;23.298;2023-02-28T15:07:23;16.17;;;8.13;;
13032;SDS011;6583;42.632;23.298;2023-02-28T15:10:14;17.97;;;8.23;;
13032;SDS011;6583;42.632;23.298;2023-02-28T15:12:45;18.47;;;8.30;;
13032;SDS011;6583;42.632;23.298;2023-02-28T15:15:17;13.97;;;7.47;;
13032;SDS011;6583;42.632;23.298;2023-02-28T15:17:46;20.07;;;9.00;;
13032;SDS011;6583;42.632;23.298;2023-02-28T15:20:17;15.50;;;8.40;;
13032;SDS011;6583;42.632;23.298;2023-02-28T15:22:46;22.73;;;10.40;;
13032;SDS011;6583;42.632;23.298;2023-02-28T15:25:17;24.47;;;13.13;;
13032;SDS011;6583;42.632;23.298;2023-02-28T15:27:46;24.23;;;13.13;;
13032;SDS011;6583;42.632;23.298;2023-02-28T15:30:16;39.03;;;20.97;;
13032;SDS011;6583;42.632;23.298;2023-02-28T15:32:45;20.37;;;12.63;;
13032;SDS011;6583;42.632;23.298;2023-02-28T15:35:30;23.57;;;11.70;;
13032;SDS011;6583;42.632;23.298;2023-02-28T15:38:01;24.03;;;12.10;;
13032;SDS011;6583;42.632;23.298;2023-02-28T15:40:31;20.93;;;10.20;;
13032;SDS011;6583;42.632;23.298;2023-02-28T15:43:05;17.70;;;9.57;;
13032;SDS011;6583;42.632;23.298;2023-02-28T15:45:37;14.67;;;7.90;;
13032;SDS011;6583;42.632;23.298;2023-02-28T15:48:13;13.93;;;7.13;;
13032;SDS011;6583;42.632;23.298;2023-02-28T15:50:43;14.17;;;7.07;;
13032;SDS011;6583;42.632;23.298;2023-02-28T15:53:15;15.30;;;7.47;;
13032;SDS011;6583;42.632;23.298;2023-02-28T15:55:45;20.93;;;11.23;;
13032;SDS011;6583;42.632;23.298;2023-02-28T15:58:19;19.57;;;11.07;;
13032;SDS011;6583;42.632;23.298;2023-02-28T16:00:59;29.17;;;16.30;;
13032;SDS011;6583;42.632;23.298;2023-02-28T16:03:32;26.50;;;16.97;;
13032;SDS011;6583;42.632;23.298;2023-02-28T16:06:09;40.17;;;28.47;;
13032;SDS011;6583;42.632;23.298;2023-02-28T16:08:50;29.13;;;20.53;;
13032;SDS011;6583;42.632;23.298;2023-02-28T16:11:18;23.40;;;15.53;;
13032;SDS011;6583;42.632;23.298;2023-02-28T16:13:46;25.17;;;14.87;;
13032;SDS011;6583;42.632;23.298;2023-02-28T16:16:15;26.03;;;14.93;;
13032;SDS011;6583;42.632;23.298;2023-02-28T16:18:43;32.10;;;17.60;;
13032;SDS011;6583;42.632;23.298;2023-02-28T16:21:09;26.70;;;15.33;;
13032;SDS011;6583;42.632;23.298;2023-02-28T16:23:36;25.50;;;15.93;;
13032;SDS011;6583;42.632;23.298;2023-02-28T16:26:04;21.40;;;14.87;;
13032;SDS011;6583;42.632;23.298;2023-02-28T16:28:33;20.43;;;13.00;;
13032;SDS011;6583;42.632;23.298;2023-02-28T16:31:02;23.20;;;15.03;;
13032;SDS011;6583;42.632;23.298;2023-02-28T16:33:32;23.63;;;14.17;;
13032;SDS011;6583;42.632;23.298;2023-02-28T16:35:59;18.00;;;12.43;;
13032;SDS011;6583;42.632;23.298;2023-02-28T16:38:26;18.93;;;11.97;;
13032;SDS011;6583;42.632;23.298;2023-02-28T16:40:53;19.57;;;11.90;;
13032;SDS011;6583;42.632;23.298;2023-02-28T16:43:24;18.47;;;11.60;;
13032;SDS011;6583;42.632;23.298;2023-02-28T16:45:54;16.90;;;11.43;;
13032;SDS011;6583;42.632;23.298;2023-02-28T16:48:21;15.83;;;10.23;;
13032;SDS011;6583;42.632;23.298;2023-02-28T16:50:48;16.43;;;9.80;;
13032;SDS011;6583;42.632;23.298;2023-02-28T16:53:15;24.60;;;15.73;;
13032;SDS011;6583;42.632;23.298;2023-02-28T16:55:41;18.43;;;13.23;;
13032;SDS011;6583;42.632;23.298;2023-02-28T16:58:10;19.40;;;11.53;;
13032;SDS011;6583;42.632;23.298;2023-02-28T17:00:41;19.27;;;12.60;;
13032;SDS011;6583;42.632;23.298;2023-02-28T17:03:10;19.73;;;13.63;;
13032;SDS011;6583;42.632;23.298;2023-02-28T17:05:47;32.00;;;21.33;;
13032;SDS011;6583;42.632;23.298;2023-02-28T17:08:13;22.50;;;15.80;;
13032;SDS011;6583;42.632;23.298;2023-02-28T17:10:40;19.63;;;12.90;;
13032;SDS011;6583;42.632;23.298;2023-02-28T17:13:10;16.37;;;10.67;;
13032;SDS011;6583;42.632;23.298;2023-02-28T17:15:36;16.80;;;11.60;;
13032;SDS011;6583;42.632;23.298;2023-02-28T17:18:05;19.37;;;12.43;;
13032;SDS011;6583;42.632;23.298;2023-02-28T17:20:33;20.30;;;12.83;;
13032;SDS011;6583;42.632;23.298;2023-02-28T17:23:00;18.10;;;12.57;;
13032;SDS011;6583;42.632;23.298;2023-02-28T17:25:27;18.63;;;12.47;;
13032;SDS011;6583;42.632;23.298;2023-02-28T17:27:53;20.53;;;13.43;;
13032;SDS011;6583;42.632;23.298;2023-02-28T17:30:21;16.87;;;11.00;;
13032;SDS011;6583;42.632;23.298;2023-02-28T17:32:49;19.90;;;11.70;;
13032;SDS011;6583;42.632;23.298;2023-02-28T17:35:18;15.43;;;9.63;;
13032;SDS011;6583;42.632;23.298;2023-02-28T17:37:44;16.20;;;9.90;;
13032;SDS011;6583;42.632;23.298;2023-02-28T17:40:13;13.53;;;8.87;;
13032;SDS011;6583;42.632;23.298;2023-02-28T17:42:40;13.63;;;9.83;;
13032;SDS011;6583;42.632;23.298;2023-02-28T17:45:07;16.17;;;10.00;;
13032;SDS011;6583;42.632;23.298;2023-02-28T17:47:35;17.70;;;10.73;;
13032;SDS011;6583;42.632;23.298;2023-02-28T17:50:03;21.90;;;14.10;;
13032;SDS011;6583;42.632;23.298;2023-02-28T17:52:31;25.17;;;14.87;;
13032;SDS011;6583;42.632;23.298;2023-02-28T17:55:01;22.27;;;13.03;;
13032;SDS011;6583;42.632;23.298;2023-02-28T17:57:29;21.03;;;12.70;;
13032;SDS011;6583;42.632;23.298;2023-02-28T17:59:55;16.83;;;11.23;;
13032;SDS011;6583;42.632;23.298;2023-02-28T18:02:22;18.13;;;10.87;;
13032;SDS011;6583;42.632;23.298;2023-02-28T18:04:49;13.47;;;9.13;;
13032;SDS011;6583;42.632;23.298;2023-02-28T18:07:16;14.57;;;9.73;;
13032;SDS011;6583;42.632;23.298;2023-02-28T18:09:45;14.17;;;10.90;;
13032;SDS011;6583;42.632;23.298;2023-02-28T18:12:12;18.33;;;11.77;;
13032;SDS011;6583;42.632;23.298;2023-02-28T18:14:39;16.57;;;10.90;;
13032;SDS011;6583;42.632;23.298;2023-02-28T18:17:05;16.70;;;12.37;;
13032;SDS011;6583;42.632;23.298;2023-02-28T18:19:32;14.80;;;10.63;;
13032;SDS011;6583;42.632;23.298;2023-02-28T18:21:59;17.67;;;11.67;;
13032;SDS011;6583;42.632;23.298;2023-02-28T18:24:25;16.67;;;12.27;;
13032;SDS011;6583;42.632;23.298;2023-02-28T18:26:53;18.60;;;12.80;;
13032;SDS011;6583;42.632;23.298;2023-02-28T18:29:20;18.10;;;12.33;;
13032;SDS011;6583;42.632;23.298;2023-02-28T18:31:48;13.83;;;9.57;;
13032;SDS011;6583;42.632;23.298;2023-02-28T18:34:15;16.47;;;12.50;;
13032;SDS011;6583;42.632;23.298;2023-02-28T18:36:42;14.27;;;11.67;;
13032;SDS011;6583;42.632;23.298;2023-02-28T18:39:11;17.00;;;13.10;;
13032;SDS011;6583;42.632;23.298;2023-02-28T18:41:38;17.70;;;12.17;;
13032;SDS011;6583;42.632;23.298;2023-02-28T18:44:06;15.97;;;11.93;;
13032;SDS011;6583;42.632;23.298;2023-02-28T18:46:33;14.43;;;9.93;;
13032;SDS011;6583;42.632;23.298;2023-02-28T18:49:00;15.03;;;10.87;;
13032;SDS011;6583;42.632;23.298;2023-02-28T18:51:28;15.47;;;11.67;;
13032;SDS011;6583;42.632;23.298;2023-02-28T18:53:55;14.67;;;9.63;;
13032;SDS011;6583;42.632;23.298;2023-02-28T18:56:23;14.30;;;10.63;;
13032;SDS011;6583;42.632;23.298;2023-02-28T18:58:50;14.63;;;11.13;;
13032;SDS011;6583;42.632;23.298;2023-02-28T19:01:20;13.40;;;10.50;;
13032;SDS011;6583;42.632;23.298;2023-02-28T19:03:49;11.53;;;8.27;;
13032;SDS011;6583;42.632;23.298;2023-02-28T19:06:16;12.77;;;9.90;;
13032;SDS011;6583;42.632;23.298;2023-02-28T19:08:43;13.40;;;9.93;;
13032;SDS011;6583;42.632;23.298;2023-02-28T19:11:11;16.13;;;11.63;;
13032;SDS011;6583;42.632;23.298;2023-02-28T19:13:39;13.30;;;9.00;;
13032;SDS011;6583;42.632;23.298;2023-02-28T19:16:07;14.63;;;11.30;;
13032;SDS011;6583;42.632;23.298;2023-02-28T19:18:36;16.80;;;12.17;;
13032;SDS011;6583;42.632;23.298;2023-02-28T19:21:05;15.00;;;11.07;;
13032;SDS011;6583;42.632;23.298;2023-02-28T19:23:32;13.20;;;10.97;;
13032;SDS011;6583;42.632;23.298;2023-02-28T19:25:59;13.90;;;10.87;;
13032;SDS011;6583;42.632;23.298;2023-02-28T19:28:26;14.93;;;11.17;;
13032;SDS011;6583;42.632;23.298;2023-02-28T19:30:53;14.60;;;11.20;;
13032;SDS011;6583;42.632;23.298;2023-02-28T19:33:20;15.97;;;11.23;;
13032;SDS011;6583;42.632;23.298;2023-02-28T19:35:48;15.93;;;12.27;;
13032;SDS011;6583;42.632;23.298;2023-02-28T19:38:16;14.70;;;11.53;;
13032;SDS011;6583;42.632;23.298;2023-02-28T19:40:43;15.97;;;12.70;;
13032;SDS011;6583;42.632;23.298;2023-02-28T19:43:09;16.33;;;12.67;;
13032;SDS011;6583;42.632;23.298;2023-02-28T19:45:36;16.30;;;12.83;;
13032;SDS011;6583;42.632;23.298;2023-02-28T19:48:03;15.77;;;12.10;;
13032;SDS011;6583;42.632;23.298;2023-02-28T19:50:33;17.17;;;12.67;;
13032;SDS011;6583;42.632;23.298;2023-02-28T19:53:03;16.93;;;12.43;;
13032;SDS011;6583;42.632;23.298;2023-02-28T19:55:29;15.03;;;11.73;;
13032;SDS011;6583;42.632;23.298;2023-02-28T19:57:56;16.40;;;11.83;;
13032;SDS011;6583;42.632;23.298;2023-02-28T20:00:22;18.03;;;11.73;;
13032;SDS011;6583;42.632;23.298;2023-02-28T20:02:49;18.27;;;13.47;;
13032;SDS011;6583;42.632;23.298;2023-02-28T20:05:16;17.13;;;12.90;;
13032;SDS011;6583;42.632;23.298;2023-02-28T20:07:43;19.87;;;13.87;;
13032;SDS011;6583;42.632;23.298;2023-02-28T20:10:11;19.23;;;13.87;;
13032;SDS011;6583;42.632;23.298;2023-02-28T20:12:38;18.50;;;13.57;;
13032;SDS011;6583;42.632;23.298;2023-02-28T20:15:05;18.53;;;12.67;;
13032;SDS011;6583;42.632;23.298;2023-02-28T20:17:32;20.07;;;14.00;;
13032;SDS011;6583;42.632;23.298;2023-02-28T20:19:59;19.13;;;14.13;;
13032;SDS011;6583;42.632;23.298;2023-02-28T20:22:25;21.10;;;14.43;;
13032;SDS011;6583;42.632;23.298;2023-02-28T20:24:55;19.07;;;13.27;;
13032;SDS011;6583;42.632;23.298;2023-02-28T20:27:23;15.70;;;11.57;;
13032;SDS011;6583;42.632;23.298;2023-02-28T20:29:50;17.93;;;12.40;;
13032;SDS011;6583;42.632;23.298;2023-02-28T20:32:17;17.33;;;12.30;;
13032;SDS011;6583;42.632;23.298;2023-02-28T20:34:44;18.97;;;12.87;;
13032;SDS011;6583;42.632;23.298;2023-02-28T20:37:11;19.37;;;13.23;;
13032;SDS011;6583;42.632;23.298;2023-02-28T20:39:37;16.37;;;11.63;;
13032;SDS011;6583;42.632;23.298;2023-02-28T20:42:04;14.83;;;11.13;;
13032;SDS011;6583;42.632;23.298;2023-02-28T20:44:32;23.77;;;15.57;;
13032;SDS011;6583;42.632;23.298;2023-02-28T20:46:59;19.33;;;14.27;;
13032;SDS011;6583;42.632;23.298;2023-02-28T20:49:25;17.63;;;12.43;;
13032;SDS011;6583;42.632;23.298;2023-02-28T20:51:52;15.17;;;9.80;;
13032;SDS011;6583;42.632;23.298;2023-02-28T20:54:19;16.53;;;10.87;;
13032;SDS011;6583;42.632;23.298;2023-02-28T20:56:46;12.30;;;9.63;;
13032;SDS011;6583;42.632;23.298;2023-02-28T20:59:12;13.57;;;9.77;;
13032;SDS011;6583;42.632;23.298;2023-02-28T21:01:40;14.73;;;10.50;;
13032;SDS011;6583;42.632;23.298;2023-02-28T21:04:07;14.10;;;10.03;;
13032;SDS011;6583;42.632;23.298;2023-02-28T21:06:35;13.80;;;9.70;;